Admire, Kansas
Current Conditions -  °F | °C
As of 3:27 AM on Thursday 18 Dec 2014 (Local Time) from KEMP Reporting Station
Light Snow Light Snow  
Wind Chill: 21°   Ceiling: 2300
Heat Index: 28°   Visibility: 1mi
Dew Point: 27°   Wind: 7mph
Humidity: 96%   Direction: 70°ENE
Pressure: 30.16"   Gusts: NA
Location:  38.64°N, 96.1°W
Report Text: KEMP 180927Z AUTO 07006KT 1SM -SN BR FEW004 OVC023 M02/M03 A3016 RMK AO2 P0000 T10221028
Loading
Personal Weather Stations






























Interactive Weather Map New forecast layout! Learn more

10-Day Weather Forecast

Advertisements
Track Severe Weather on mobile